createdAt,value
2022-12-20T00:00:11.386Z,92.70
2022-12-20T00:03:14.894Z,92.80
2022-12-20T00:06:20.324Z,91.40
2022-12-20T00:09:25.326Z,91.30
2022-12-20T00:12:28.918Z,90.10
2022-12-20T00:15:32.144Z,90.00
2022-12-20T00:18:35.787Z,90.00
2022-12-20T00:21:40.367Z,89.90
2022-12-20T00:24:43.609Z,89.60
2022-12-20T00:27:46.897Z,90.30
2022-12-20T00:30:55.096Z,89.30
2022-12-20T00:34:00.181Z,87.20
2022-12-20T00:40:09.700Z,87.00
2022-12-20T00:43:12.997Z,90.10
2022-12-20T00:46:18.181Z,92.50
2022-12-20T00:49:21.698Z,92.60
2022-12-20T00:52:26.480Z,92.80
2022-12-20T00:55:29.746Z,93.30
2022-12-20T00:58:34.459Z,93.00
2022-12-20T01:04:41.794Z,92.20
2022-12-20T01:07:46.593Z,94.90
2022-12-20T01:11:00.569Z,94.70
2022-12-20T01:14:06.920Z,95.00
2022-12-20T01:17:11.127Z,94.70
2022-12-20T01:20:15.203Z,93.80
2022-12-20T01:23:20.069Z,97.40
2022-12-20T01:26:24.853Z,97.80
2022-12-20T01:29:28.164Z,97.10
2022-12-20T01:32:31.571Z,97.60
2022-12-20T01:35:35.039Z,99.20
2022-12-20T01:38:39.825Z,99.90
2022-12-20T01:41:44.995Z,99.90
2022-12-20T01:45:00.178Z,99.80
2022-12-20T01:48:03.620Z,99.90
2022-12-20T01:51:07.557Z,99.90
2022-12-20T01:54:16.383Z,99.90
2022-12-20T01:57:26.282Z,99.90
2022-12-20T02:04:01.559Z,99.90
2022-12-20T02:07:09.670Z,99.90
2022-12-20T02:10:14.611Z,99.90
2022-12-20T02:13:26.052Z,99.90
2022-12-20T02:16:33.266Z,99.90
2022-12-20T02:20:01.742Z,99.90
2022-12-20T02:23:29.744Z,99.90
2022-12-20T02:27:07.437Z,99.90
2022-12-20T02:30:18.696Z,99.90
2022-12-20T02:33:23.179Z,99.90
2022-12-20T02:36:26.553Z,99.90
2022-12-20T02:39:32.209Z,99.90
2022-12-20T02:42:35.988Z,99.90
2022-12-20T02:45:39.775Z,99.90
2022-12-20T02:48:43.781Z,99.90
2022-12-20T02:51:50.444Z,99.90
2022-12-20T02:54:54.349Z,99.90
2022-12-20T02:58:02.743Z,99.90
2022-12-20T03:01:17.783Z,99.90
2022-12-20T03:04:27.047Z,99.90
2022-12-20T03:07:31.203Z,99.90
2022-12-20T03:10:34.985Z,99.90
2022-12-20T03:13:38.517Z,99.90
2022-12-20T03:16:46.379Z,99.90
2022-12-20T03:19:49.800Z,99.90
2022-12-20T03:22:53.046Z,99.90
2022-12-20T03:25:56.921Z,99.90
2022-12-20T03:29:29.375Z,99.90
2022-12-20T03:32:34.063Z,99.90
2022-12-20T03:35:37.376Z,99.90
2022-12-20T03:38:40.537Z,99.90
2022-12-20T03:41:44.824Z,99.90
2022-12-20T03:44:53.684Z,99.90
2022-12-20T03:47:58.316Z,99.90
2022-12-20T03:51:04.045Z,99.90
2022-12-20T03:54:07.418Z,99.90
2022-12-20T03:57:30.486Z,99.90
2022-12-20T04:00:34.745Z,99.90
2022-12-20T04:04:02.370Z,99.90
2022-12-20T04:07:05.653Z,99.90
2022-12-20T04:10:10.672Z,99.90
2022-12-20T04:13:14.006Z,99.90
2022-12-20T04:16:22.027Z,99.90
2022-12-20T04:19:26.865Z,99.90
2022-12-20T04:22:30.468Z,99.90
2022-12-20T04:25:39.736Z,99.90
2022-12-20T04:28:43.895Z,99.90
2022-12-20T04:31:47.847Z,99.90
2022-12-20T04:34:52.733Z,99.90
2022-12-20T04:37:56.560Z,99.90
2022-12-20T04:41:00.884Z,99.90
2022-12-20T04:44:11.203Z,99.90
2022-12-20T04:47:15.092Z,99.90
2022-12-20T04:50:19.863Z,99.90
2022-12-20T04:53:41.976Z,99.90
2022-12-20T04:56:46.101Z,99.90
2022-12-20T04:59:54.577Z,99.90
2022-12-20T05:02:57.955Z,99.90
2022-12-20T05:06:04.263Z,99.90
2022-12-20T05:09:07.650Z,99.90
2022-12-20T05:12:11.317Z,99.90
2022-12-20T05:15:14.840Z,99.90
2022-12-20T05:18:19.285Z,99.90
2022-12-20T05:21:52.721Z,99.90
2022-12-20T05:25:24.710Z,99.90
2022-12-20T05:28:31.155Z,99.90
2022-12-20T05:31:34.548Z,99.90
2022-12-20T05:34:38.412Z,99.90
2022-12-20T05:37:43.311Z,99.90
2022-12-20T05:40:53.283Z,99.90
2022-12-20T05:43:56.694Z,99.90
2022-12-20T05:47:01.809Z,99.90
2022-12-20T05:50:12.303Z,99.90
2022-12-20T05:53:41.539Z,99.90
2022-12-20T05:56:44.852Z,99.90
2022-12-20T05:59:49.466Z,99.90
2022-12-20T06:02:55.769Z,99.90
2022-12-20T06:05:59.888Z,99.90
2022-12-20T06:09:07.977Z,99.90
2022-12-20T06:12:18.804Z,99.90
2022-12-20T06:15:23.511Z,99.90
2022-12-20T06:18:27.444Z,99.90
2022-12-20T06:21:35.164Z,99.90
2022-12-20T06:24:48.827Z,99.90
2022-12-20T06:27:59.143Z,99.90
2022-12-20T06:34:40.546Z,99.90
2022-12-20T06:37:47.761Z,99.90
2022-12-20T06:40:53.539Z,99.90
2022-12-20T06:44:00.912Z,99.90
2022-12-20T06:47:08.573Z,99.90
2022-12-20T06:50:13.267Z,99.90
2022-12-20T06:53:19.588Z,99.90
2022-12-20T06:56:24.805Z,99.90
2022-12-20T06:59:31.710Z,99.90
2022-12-20T07:02:35.735Z,99.90
2022-12-20T07:05:39.607Z,99.90
2022-12-20T07:08:45.509Z,99.90
2022-12-20T07:11:50.977Z,99.90
2022-12-20T07:15:18.868Z,99.90
2022-12-20T07:18:22.300Z,99.90
2022-12-20T07:21:25.359Z,99.90
2022-12-20T07:24:29.284Z,99.90
2022-12-20T07:27:34.908Z,99.90
2022-12-20T07:30:38.771Z,99.90
2022-12-20T07:33:41.927Z,99.90
2022-12-20T07:36:45.289Z,99.90
2022-12-20T07:39:48.598Z,99.90
2022-12-20T07:42:53.294Z,99.90
2022-12-20T07:45:57.492Z,99.90
2022-12-20T07:49:00.722Z,99.90
2022-12-20T07:52:05.810Z,99.90
2022-12-20T07:55:10.318Z,99.90
2022-12-20T07:58:16.612Z,99.90
2022-12-20T08:01:21.485Z,99.90
2022-12-20T08:04:28.141Z,99.90
2022-12-20T08:07:32.546Z,99.90
2022-12-20T08:10:36.340Z,99.90
2022-12-20T08:13:46.191Z,99.90
2022-12-20T08:16:50.788Z,99.90
2022-12-20T08:19:54.104Z,99.90
2022-12-20T08:23:00.446Z,99.90
2022-12-20T08:26:04.051Z,99.90
2022-12-20T08:29:09.731Z,99.90
2022-12-20T08:32:14.165Z,99.90
2022-12-20T08:35:17.467Z,99.90
2022-12-20T08:38:20.695Z,99.90
2022-12-20T08:41:24.129Z,99.90
2022-12-20T08:44:29.286Z,99.90
2022-12-20T08:47:32.542Z,99.90
2022-12-20T08:50:36.331Z,99.90
2022-12-20T08:53:40.563Z,99.90
2022-12-20T08:56:43.772Z,99.90
2022-12-20T08:59:48.385Z,99.20
2022-12-20T09:02:52.039Z,97.50
2022-12-20T09:05:55.392Z,91.90
2022-12-20T09:09:00.345Z,91.50
2022-12-20T09:12:03.549Z,91.80
2022-12-20T09:15:09.534Z,86.90
2022-12-20T09:18:13.239Z,80.50
2022-12-20T09:21:17.021Z,79.60
2022-12-20T09:24:20.837Z,78.90
2022-12-20T09:27:24.393Z,76.80
2022-12-20T09:30:29.003Z,69.20
2022-12-20T09:33:34.702Z,68.10
2022-12-20T09:36:38.300Z,65.40
2022-12-20T09:39:41.684Z,66.70
2022-12-20T09:42:45.161Z,74.50
2022-12-20T09:45:54.102Z,73.20
2022-12-20T09:48:58.350Z,77.80
2022-12-20T09:52:20.441Z,73.30
2022-12-20T09:55:32.799Z,78.00
2022-12-20T09:58:50.401Z,79.30
2022-12-20T10:01:55.251Z,79.60
2022-12-20T10:04:58.839Z,75.50
2022-12-20T10:08:07.458Z,72.50
2022-12-20T10:11:18.100Z,75.20
2022-12-20T10:14:34.404Z,80.80
2022-12-20T10:17:51.047Z,84.00
2022-12-20T10:21:01.747Z,83.00
2022-12-20T10:24:09.902Z,81.90
2022-12-20T10:27:15.890Z,86.30
2022-12-20T10:30:22.277Z,87.00
2022-12-20T10:33:31.304Z,87.90
2022-12-20T10:36:36.553Z,88.10
2022-12-20T10:39:44.106Z,84.00
2022-12-20T10:42:47.481Z,83.40
2022-12-20T10:45:58.811Z,81.80
2022-12-20T10:49:23.704Z,80.70
2022-12-20T10:52:27.234Z,77.20
2022-12-20T10:55:38.632Z,63.60
2022-12-20T10:58:42.375Z,56.10
2022-12-20T11:01:48.448Z,37.00
2022-12-20T11:05:06.327Z,22.20
2022-12-20T11:11:39.836Z,6.90
2022-12-20T11:14:44.616Z,9.40
2022-12-20T11:17:50.203Z,12.50
2022-12-20T11:21:04.225Z,18.10
2022-12-20T11:24:14.296Z,19.30
2022-12-20T11:27:26.461Z,13.00
2022-12-20T11:30:36.312Z,16.30
2022-12-20T11:34:04.688Z,14.10
2022-12-20T11:37:20.208Z,21.80
2022-12-20T11:40:32.061Z,25.10
2022-12-20T11:44:27.642Z,24.50
2022-12-20T11:47:50.063Z,21.80
2022-12-20T11:51:04.087Z,11.30
2022-12-20T11:54:14.595Z,15.20
2022-12-20T11:57:22.791Z,12.80
2022-12-20T12:00:26.759Z,1.00
2022-12-20T12:03:34.840Z,2.70
2022-12-20T12:06:43.574Z,1.00
2022-12-20T12:09:54.924Z,6.00
2022-12-20T12:13:05.019Z,14.30
2022-12-20T12:16:12.254Z,15.80
2022-12-20T12:19:16.076Z,21.20
2022-12-20T12:22:25.838Z,25.50
2022-12-20T12:25:30.394Z,29.60
2022-12-20T12:28:36.280Z,40.30
2022-12-20T12:31:44.222Z,47.80
2022-12-20T12:35:00.104Z,52.50
2022-12-20T12:38:22.710Z,54.00
2022-12-20T12:41:50.814Z,52.00
2022-12-20T12:44:58.622Z,58.30
2022-12-20T12:48:07.523Z,62.50
2022-12-20T12:51:12.400Z,64.30
2022-12-20T12:54:20.342Z,67.60
2022-12-20T12:57:24.847Z,62.40
2022-12-20T13:00:50.443Z,56.50
2022-12-20T13:04:27.567Z,59.00
2022-12-20T13:07:43.741Z,68.50
2022-12-20T13:11:04.043Z,75.10
2022-12-20T13:14:50.119Z,77.20
2022-12-20T13:17:55.187Z,82.90
2022-12-20T13:21:35.328Z,80.70
2022-12-20T13:24:53.135Z,76.60
2022-12-20T13:28:34.726Z,81.50
2022-12-20T13:31:39.431Z,77.70
2022-12-20T13:34:55.553Z,82.30
2022-12-20T13:38:02.287Z,87.10
2022-12-20T13:41:14.048Z,88.90
2022-12-20T13:44:41.583Z,92.60
2022-12-20T13:47:51.325Z,91.30
2022-12-20T13:50:55.819Z,89.30
2022-12-20T13:54:01.311Z,91.10
2022-12-20T13:57:07.990Z,90.30
2022-12-20T14:00:17.481Z,91.50
2022-12-20T14:03:27.642Z,93.50
2022-12-20T14:06:30.881Z,94.00
2022-12-20T14:09:39.344Z,94.60
2022-12-20T14:12:47.288Z,95.30
2022-12-20T14:15:53.963Z,95.10
2022-12-20T14:19:06.074Z,87.30
2022-12-20T14:22:12.250Z,91.40
2022-12-20T14:25:19.297Z,93.00
2022-12-20T14:28:32.283Z,89.90
2022-12-20T14:31:41.203Z,90.90
2022-12-20T14:34:46.074Z,93.30
2022-12-20T14:37:55.123Z,94.10
2022-12-20T14:40:58.507Z,93.30
2022-12-20T14:44:07.026Z,92.00
2022-12-20T14:47:17.021Z,93.20
2022-12-20T14:50:26.846Z,93.80
2022-12-20T14:53:30.231Z,91.60
2022-12-20T14:56:33.784Z,92.90
2022-12-20T14:59:37.364Z,92.90
2022-12-20T15:02:43.680Z,92.30
2022-12-20T15:05:51.315Z,92.90
2022-12-20T15:08:54.956Z,92.70
2022-12-20T15:12:00.383Z,92.10
2022-12-20T15:15:27.647Z,94.30
2022-12-20T15:18:27.264Z,94.00
2022-12-20T15:21:34.090Z,96.00
2022-12-20T15:24:37.403Z,93.50
2022-12-20T15:27:40.796Z,94.90
2022-12-20T15:30:44.475Z,96.10
2022-12-20T15:33:48.172Z,95.30
2022-12-20T15:36:55.674Z,96.60
2022-12-20T15:39:59.653Z,96.70
2022-12-20T15:43:02.968Z,97.30
2022-12-20T15:46:07.849Z,97.90
2022-12-20T15:49:18.293Z,99.60
2022-12-20T15:52:24.697Z,98.70
2022-12-20T15:55:27.954Z,99.90
2022-12-20T15:58:31.295Z,97.10
2022-12-20T16:01:42.169Z,98.60
2022-12-20T16:04:45.888Z,97.20
2022-12-20T16:07:50.734Z,97.00
2022-12-20T16:10:54.548Z,98.70
2022-12-20T16:13:59.067Z,98.10
2022-12-20T16:17:02.565Z,98.40
2022-12-20T16:20:07.310Z,99.10
2022-12-20T16:23:25.279Z,96.90
2022-12-20T16:26:37.343Z,94.40
2022-12-20T16:29:45.797Z,95.70
2022-12-20T16:32:49.820Z,95.20
2022-12-20T16:35:53.330Z,95.00
2022-12-20T16:38:58.293Z,93.60
2022-12-20T16:42:03.132Z,92.60
2022-12-20T16:45:08.103Z,93.90
2022-12-20T16:48:12.478Z,93.70
2022-12-20T16:51:26.716Z,92.80
2022-12-20T16:57:38.963Z,90.50
2022-12-20T17:00:42.417Z,90.80
2022-12-20T17:03:46.648Z,88.80
2022-12-20T17:06:50.772Z,90.90
2022-12-20T17:13:14.868Z,87.00
2022-12-20T17:16:18.723Z,85.10
2022-12-20T17:19:22.580Z,85.10
2022-12-20T17:22:25.866Z,83.00
2022-12-20T17:25:33.791Z,85.50
2022-12-20T17:28:37.354Z,84.50
2022-12-20T17:31:42.967Z,85.00
2022-12-20T17:34:46.457Z,86.30
2022-12-20T17:37:51.752Z,87.50
2022-12-20T17:40:57.376Z,90.10
2022-12-20T17:44:03.903Z,92.90
2022-12-20T17:47:07.731Z,90.30
2022-12-20T17:50:11.792Z,88.30
2022-12-20T17:53:15.323Z,86.40
2022-12-20T17:56:25.147Z,88.40
2022-12-20T17:59:29.342Z,89.90
2022-12-20T18:02:32.676Z,92.30
2022-12-20T18:05:36.203Z,90.00
2022-12-20T18:08:39.626Z,90.30
2022-12-20T18:14:50.795Z,91.40
2022-12-20T18:17:54.467Z,89.30
2022-12-20T18:21:03.506Z,88.70
2022-12-20T18:24:07.447Z,79.30
2022-12-20T18:30:16.872Z,86.20
2022-12-20T18:33:20.148Z,88.10
2022-12-20T18:36:25.117Z,91.00
2022-12-20T18:39:29.422Z,87.40
2022-12-20T18:42:34.273Z,90.60
2022-12-20T18:45:37.789Z,88.20
2022-12-20T18:48:41.689Z,87.40
2022-12-20T18:51:45.468Z,83.40
2022-12-20T18:54:48.835Z,74.50
2022-12-20T18:57:53.511Z,73.40
2022-12-20T19:01:02.048Z,79.50
2022-12-20T19:04:08.162Z,86.60
2022-12-20T19:07:13.768Z,86.20
2022-12-20T19:10:21.918Z,79.60
2022-12-20T19:13:28.828Z,85.00
2022-12-20T19:16:33.649Z,84.10
2022-12-20T19:19:37.318Z,85.40
2022-12-20T19:22:40.869Z,87.70
2022-12-20T19:25:45.724Z,84.20
2022-12-20T19:28:50.659Z,83.30
2022-12-20T19:31:57.719Z,80.90
2022-12-20T19:35:16.437Z,82.80
2022-12-20T19:38:25.352Z,80.90
2022-12-20T19:41:30.791Z,75.70
2022-12-20T19:44:36.841Z,76.20
2022-12-20T19:47:40.604Z,70.30
2022-12-20T19:50:45.953Z,75.30
2022-12-20T19:53:51.762Z,71.60
2022-12-20T19:56:55.141Z,74.80
2022-12-20T20:00:00.743Z,69.10
2022-12-20T20:03:04.293Z,68.70
2022-12-20T20:06:11.063Z,69.00
2022-12-20T20:09:18.368Z,58.90
2022-12-20T20:12:23.494Z,73.30
2022-12-20T20:15:28.409Z,73.40
2022-12-20T20:18:35.008Z,72.10
2022-12-20T20:21:38.530Z,74.50
2022-12-20T20:24:41.733Z,73.10
2022-12-20T20:27:45.455Z,69.20
2022-12-20T20:30:50.753Z,71.10
2022-12-20T20:33:55.487Z,70.80
2022-12-20T20:37:01.083Z,66.80
2022-12-20T20:40:04.950Z,69.00
2022-12-20T20:43:08.373Z,66.90
2022-12-20T20:46:15.948Z,67.50
2022-12-20T20:49:20.623Z,59.10
2022-12-20T20:52:23.981Z,62.80
2022-12-20T20:55:27.456Z,58.60
2022-12-20T20:58:31.124Z,59.90
2022-12-20T21:01:36.248Z,59.10
2022-12-20T21:04:39.890Z,54.90
2022-12-20T21:07:43.329Z,55.30
2022-12-20T21:10:46.878Z,56.50
2022-12-20T21:13:50.432Z,55.40
2022-12-20T21:16:55.464Z,58.20
2022-12-20T21:19:59.794Z,62.10
2022-12-20T21:23:03.111Z,64.20
2022-12-20T21:26:09.047Z,61.00
2022-12-20T21:29:12.690Z,61.70
2022-12-20T21:32:17.455Z,69.30
2022-12-20T21:35:21.357Z,69.20
2022-12-20T21:38:24.738Z,73.00
2022-12-20T21:41:30.603Z,74.90
2022-12-20T21:44:34.239Z,74.10
2022-12-20T21:47:39.774Z,67.60
2022-12-20T21:50:43.260Z,65.90
2022-12-20T21:53:48.850Z,62.10
2022-12-20T21:56:52.448Z,66.50
2022-12-20T21:59:55.729Z,68.60
2022-12-20T22:03:00.543Z,70.60
2022-12-20T22:06:04.153Z,75.40
2022-12-20T22:09:09.911Z,68.00
2022-12-20T22:12:13.296Z,73.90
2022-12-20T22:15:16.951Z,78.70
2022-12-20T22:18:21.890Z,70.20
2022-12-20T22:21:27.923Z,75.70
2022-12-20T22:24:31.340Z,70.50
2022-12-20T22:27:34.698Z,69.40
2022-12-20T22:30:42.151Z,68.00
2022-12-20T22:33:47.449Z,67.60
2022-12-20T22:36:50.792Z,61.70
2022-12-20T22:39:54.322Z,65.90
2022-12-20T22:42:57.599Z,68.90
2022-12-20T22:46:01.730Z,66.40
2022-12-20T22:49:06.442Z,73.50
2022-12-20T22:52:09.748Z,75.00
2022-12-20T22:55:13.229Z,75.30
2022-12-20T22:58:16.549Z,80.70
2022-12-20T23:01:21.534Z,77.40
2022-12-20T23:04:26.533Z,78.40
2022-12-20T23:07:29.867Z,77.20
2022-12-20T23:10:50.649Z,78.60
2022-12-20T23:14:11.617Z,77.20
2022-12-20T23:17:14.888Z,79.00
2022-12-20T23:20:51.272Z,79.30
2022-12-20T23:23:56.332Z,78.90
2022-12-20T23:26:59.774Z,83.00
2022-12-20T23:30:03.125Z,79.20
2022-12-20T23:33:06.406Z,81.80
2022-12-20T23:36:12.374Z,80.70
2022-12-20T23:39:15.608Z,82.20
2022-12-20T23:42:18.850Z,80.80
2022-12-20T23:45:22.085Z,78.30
2022-12-20T23:48:25.540Z,73.50
2022-12-20T23:51:30.179Z,74.20
2022-12-20T23:54:33.931Z,70.70
2022-12-20T23:57:37.587Z,69.60
